Time,TemperatureF,DewpointF,PressureIn,WindDirection,WindDirectionDegrees,WindSpeedMPH,WindSpeedGustMPH,Humidity,HourlyPrecipIn,Conditions,Clouds,dailyrainin,SoftwareType,DateUTC
2013-04-08 00:01:00,47.2,43.8,30.01,SSW,201,11.0,26.0,88,0.00,,---,0.00,VWS V14.01,2013-04-08 04:01:00,
2013-04-08 00:31:00,47.5,44.4,30.00,SW,224,20.0,25.0,89,0.00,,---,0.00,VWS V14.01,2013-04-08 04:31:00,
2013-04-08 00:46:00,47.4,44.3,30.00,SW,222,9.0,24.0,89,0.00,,---,0.00,VWS V14.01,2013-04-08 04:46:00,
2013-04-08 01:01:00,47.4,44.3,30.00,SSW,201,11.0,21.0,89,0.00,,---,0.00,VWS V14.01,2013-04-08 05:01:00,
2013-04-08 01:16:00,47.5,44.4,30.00,SW,226,9.0,23.0,89,0.00,,---,0.00,VWS V14.01,2013-04-08 05:16:00,
2013-04-08 01:31:00,47.7,44.6,29.99,SSW,198,11.0,21.0,89,0.00,,---,0.00,VWS V14.01,2013-04-08 05:31:00,
2013-04-08 01:46:00,47.6,44.5,29.98,WSW,245,12.0,20.0,89,0.00,,---,0.00,VWS V14.01,2013-04-08 05:46:00,
2013-04-08 02:01:00,47.5,44.7,29.98,SSW,208,11.0,21.0,90,0.00,,---,0.00,VWS V14.01,2013-04-08 06:01:00,
2013-04-08 02:16:00,47.4,44.9,29.98,South,178,10.0,19.0,91,0.00,,---,0.00,VWS V14.01,2013-04-08 06:16:00,
2013-04-08 02:31:00,47.5,45.0,29.97,WSW,253,8.0,20.0,91,0.00,,---,0.00,VWS V14.01,2013-04-08 06:31:00,
2013-04-08 02:46:00,47.4,44.9,29.97,SSW,199,11.0,19.0,91,0.00,,---,0.00,VWS V14.01,2013-04-08 06:46:00,
2013-04-08 03:01:00,47.3,44.8,29.96,SW,232,14.0,19.0,91,0.00,,---,0.00,VWS V14.01,2013-04-08 07:01:00,
2013-04-08 03:16:00,47.5,45.0,29.95,SSW,198,13.0,21.0,91,0.00,,---,0.00,VWS V14.01,2013-04-08 07:16:00,
2013-04-08 03:31:00,47.3,45.1,29.95,SSW,203,9.0,18.0,92,0.00,,---,0.00,VWS V14.01,2013-04-08 07:31:00,
2013-04-08 03:46:00,47.1,44.9,29.95,SSW,202,8.0,20.0,92,0.00,,---,0.00,VWS V14.01,2013-04-08 07:46:00,
2013-04-08 04:01:00,47.3,45.1,29.94,SW,232,14.0,18.0,92,0.00,,---,0.00,VWS V14.01,2013-04-08 08:01:00,
2013-04-08 04:16:00,47.2,45.0,29.94,WSW,238,12.0,17.0,92,0.00,,---,0.00,VWS V14.01,2013-04-08 08:16:00,
2013-04-08 04:31:00,47.6,45.7,29.94,WSW,237,11.0,22.0,93,0.00,,---,0.00,VWS V14.01,2013-04-08 08:31:00,
2013-04-08 04:46:00,47.6,45.7,29.94,SW,215,9.0,20.0,93,0.00,,---,0.00,VWS V14.01,2013-04-08 08:46:00,
2013-04-08 05:01:00,47.2,45.3,29.93,SSW,213,6.0,19.0,93,0.00,,---,0.00,VWS V14.01,2013-04-08 09:01:00,
2013-04-08 05:16:00,46.8,44.9,29.93,SW,235,6.0,15.0,93,0.00,,---,0.00,VWS V14.01,2013-04-08 09:16:00,
2013-04-08 05:31:00,46.6,45.0,29.94,SW,220,9.0,16.0,94,0.00,,---,0.00,VWS V14.01,2013-04-08 09:31:00,
2013-04-08 05:46:00,46.1,44.5,29.93,SW,221,8.0,14.0,94,0.00,,---,0.00,VWS V14.01,2013-04-08 09:46:00,
2013-04-08 06:01:00,45.9,44.3,29.93,SSW,201,6.0,14.0,94,0.00,,---,0.00,VWS V14.01,2013-04-08 10:01:00,
2013-04-08 06:16:00,46.1,44.5,29.94,WSW,244,12.0,17.0,94,0.00,,---,0.00,VWS V14.01,2013-04-08 10:16:00,
2013-04-08 06:31:00,46.2,44.6,29.94,SSW,201,8.0,14.0,94,0.00,,---,0.00,VWS V14.01,2013-04-08 10:31:00,
2013-04-08 06:46:00,46.3,44.7,29.95,SSW,197,6.0,17.0,94,0.00,,---,0.00,VWS V14.01,2013-04-08 10:46:00,
2013-04-08 07:01:00,46.2,44.6,29.95,SSW,209,6.0,14.0,94,0.00,,---,0.00,VWS V14.01,2013-04-08 11:01:00,
2013-04-08 07:16:00,46.2,44.6,29.95,WSW,240,7.0,18.0,94,0.00,,---,0.00,VWS V14.01,2013-04-08 11:16:00,
2013-04-08 07:31:00,46.1,44.5,29.95,WSW,237,3.0,15.0,94,0.00,,---,0.00,VWS V14.01,2013-04-08 11:31:00,
2013-04-08 07:46:00,46.0,44.4,29.97,SW,216,11.0,13.0,94,0.00,,---,0.00,VWS V14.01,2013-04-08 11:46:00,
2013-04-08 08:01:00,46.0,44.4,29.97,SW,232,6.0,13.0,94,0.00,,---,0.00,VWS V14.01,2013-04-08 12:01:00,
2013-04-08 08:16:00,46.1,44.5,29.97,West,275,8.0,13.0,94,0.00,,---,0.00,VWS V14.01,2013-04-08 12:16:00,
2013-04-08 08:46:00,47.1,45.2,29.97,WSW,241,8.0,13.0,93,0.00,,---,0.00,VWS V14.01,2013-04-08 12:46:00,
2013-04-08 09:16:00,50.0,47.5,29.97,SW,231,4.0,12.0,91,0.00,,---,0.00,VWS V14.01,2013-04-08 13:16:00,
2013-04-08 09:31:00,48.8,46.0,29.97,West,281,6.0,12.0,90,0.00,,---,0.00,VWS V14.01,2013-04-08 13:31:00,
2013-04-08 09:46:00,49.5,46.4,29.97,West,260,6.0,11.0,89,0.00,,---,0.00,VWS V14.01,2013-04-08 13:46:00,
2013-04-08 10:01:00,50.3,46.9,29.97,WSW,252,6.0,12.0,88,0.00,,---,0.00,VWS V14.01,2013-04-08 14:01:00,
2013-04-08 10:16:00,53.1,48.7,29.98,WSW,237,5.0,10.0,85,0.00,,---,0.00,VWS V14.01,2013-04-08 14:16:00,
2013-04-08 10:46:00,51.8,46.5,29.98,WSW,248,7.0,11.0,82,0.00,,---,0.00,VWS V14.01,2013-04-08 14:46:00,
2013-04-08 11:01:00,51.7,46.7,29.98,WSW,248,6.0,12.0,83,0.00,,---,0.00,VWS V14.01,2013-04-08 15:01:00,
2013-04-08 11:16:00,51.8,46.2,29.98,West,267,6.0,11.0,81,0.00,,---,0.00,VWS V14.01,2013-04-08 15:16:00,
2013-04-08 11:31:00,52.8,46.8,29.99,WSW,255,9.0,11.0,80,0.00,,---,0.00,VWS V14.01,2013-04-08 15:31:00,
2013-04-08 11:46:00,54.1,47.1,29.99,WSW,240,4.0,11.0,77,0.00,,---,0.00,VWS V14.01,2013-04-08 15:46:00,
2013-04-08 12:16:00,57.0,47.3,29.99,West,267,2.0,7.0,70,0.00,,---,0.00,VWS V14.01,2013-04-08 16:16:00,
2013-04-08 12:31:00,56.3,47.4,30.00,WSW,239,2.0,9.0,72,0.00,,---,0.00,VWS V14.01,2013-04-08 16:31:00,
2013-04-08 12:46:00,57.8,47.3,30.00,WSW,255,1.0,10.0,68,0.00,,---,0.00,VWS V14.01,2013-04-08 16:46:00,
2013-04-08 13:01:00,58.8,45.8,30.00,South,183,3.0,9.0,62,0.00,,---,0.00,VWS V14.01,2013-04-08 17:01:00,
2013-04-08 13:16:00,56.2,45.0,29.99,SSW,211,4.0,12.0,66,0.00,,---,0.00,VWS V14.01,2013-04-08 17:16:00,
2013-04-08 13:31:00,55.4,42.6,30.00,NE,39,6.0,11.0,62,0.00,,---,0.00,VWS V14.01,2013-04-08 17:31:00,
2013-04-08 13:46:00,55.0,42.2,30.00,ENE,60,7.0,13.0,62,0.00,,---,0.00,VWS V14.01,2013-04-08 17:46:00,
2013-04-08 14:01:00,54.8,42.0,30.00,ENE,60,6.0,13.0,62,0.00,,---,0.00,VWS V14.01,2013-04-08 18:01:00,
2013-04-08 14:16:00,54.5,42.6,30.00,East,82,5.0,13.0,64,0.00,,---,0.00,VWS V14.01,2013-04-08 18:16:00,
2013-04-08 14:31:00,54.6,41.9,30.00,East,83,5.0,13.0,62,0.00,,---,0.00,VWS V14.01,2013-04-08 18:31:00,
2013-04-08 14:46:00,53.9,41.2,30.00,ENE,74,11.0,15.0,62,0.00,,---,0.00,VWS V14.01,2013-04-08 18:46:00,
2013-04-08 15:16:00,54.4,41.7,30.01,East,91,9.0,14.0,62,0.00,,---,0.00,VWS V14.01,2013-04-08 19:16:00,
2013-04-08 15:31:00,53.0,41.6,30.00,East,82,7.0,13.0,65,0.00,,---,0.00,VWS V14.01,2013-04-08 19:31:00,
2013-04-08 15:46:00,52.9,41.5,30.00,ENE,78,7.0,13.0,65,0.00,,---,0.00,VWS V14.01,2013-04-08 19:46:00,
2013-04-08 16:16:00,53.0,42.0,30.00,SE,125,7.0,9.0,66,0.00,,---,0.00,VWS V14.01,2013-04-08 20:16:00,
2013-04-08 16:31:00,51.3,42.6,30.01,East,89,6.0,10.0,72,0.00,,---,0.00,VWS V14.01,2013-04-08 20:31:00,
2013-04-08 17:01:00,49.4,42.5,30.01,ENE,76,5.0,8.0,77,0.00,,---,0.00,VWS V14.01,2013-04-08 21:01:00,
2013-04-08 17:16:00,49.1,42.5,30.02,ESE,103,4.0,8.0,78,0.00,,---,0.00,VWS V14.01,2013-04-08 21:16:00,
2013-04-08 17:31:00,49.4,42.5,30.03,ENE,77,4.0,12.0,77,0.00,,---,0.00,VWS V14.01,2013-04-08 21:31:00,
2013-04-08 17:46:00,49.4,41.8,30.03,East,83,4.0,11.0,75,0.00,,---,0.00,VWS V14.01,2013-04-08 21:46:00,
2013-04-08 18:01:00,49.4,41.1,30.03,East,80,4.0,11.0,73,0.00,,---,0.00,VWS V14.01,2013-04-08 22:01:00,
2013-04-08 18:16:00,48.7,41.1,30.03,East,84,7.0,9.0,75,0.00,,---,0.00,VWS V14.01,2013-04-08 22:16:00,
2013-04-08 18:31:00,47.8,41.3,30.03,East,98,4.0,7.0,78,0.00,,---,0.00,VWS V14.01,2013-04-08 22:31:00,
2013-04-08 18:46:00,46.6,40.8,30.03,East,100,1.0,7.0,80,0.00,,---,0.00,VWS V14.01,2013-04-08 22:46:00,
2013-04-08 19:01:00,45.6,40.4,30.03,East,100,0.0,5.0,82,0.00,,---,0.00,VWS V14.01,2013-04-08 23:01:00,
2013-04-08 19:16:00,45.3,40.8,30.04,East,101,2.0,5.0,84,0.00,,---,0.00,VWS V14.01,2013-04-08 23:16:00,
2013-04-08 19:31:00,45.1,41.2,30.04,East,101,4.0,5.0,86,0.00,,---,0.00,VWS V14.01,2013-04-08 23:31:00,
2013-04-08 19:46:00,44.6,41.0,30.05,East,101,1.0,5.0,87,0.00,,---,0.00,VWS V14.01,2013-04-08 23:46:00,
2013-04-08 20:01:00,44.0,40.4,30.05,East,101,2.0,5.0,87,0.00,,---,0.00,VWS V14.01,2013-04-09 00:01:00,
2013-04-08 20:16:00,44.3,41.0,30.06,East,101,4.0,4.0,88,0.00,,---,0.00,VWS V14.01,2013-04-09 00:16:00,
2013-04-08 20:31:00,44.3,41.0,30.07,South,171,2.0,6.0,88,0.00,,---,0.00,VWS V14.01,2013-04-09 00:31:00,
2013-04-08 20:46:00,44.3,41.3,30.08,South,176,5.0,6.0,89,0.00,,---,0.00,VWS V14.01,2013-04-09 00:46:00,
2013-04-08 21:01:00,44.2,41.5,30.08,SSW,198,1.0,7.0,90,0.00,,---,0.00,VWS V14.01,2013-04-09 01:01:00,
2013-04-08 21:16:00,44.2,41.7,30.08,South,190,3.0,6.0,91,0.00,,---,0.00,VWS V14.01,2013-04-09 01:16:00,
2013-04-08 21:31:00,44.1,41.7,30.08,South,190,2.0,7.0,91,0.00,,---,0.00,VWS V14.01,2013-04-09 01:31:00,
2013-04-08 21:46:00,44.0,41.5,30.08,SSW,199,4.0,6.0,91,0.00,,---,0.00,VWS V14.01,2013-04-09 01:46:00,
2013-04-08 22:01:00,44.0,41.5,30.07,South,175,2.0,8.0,91,0.00,,---,0.00,VWS V14.01,2013-04-09 02:01:00,
2013-04-08 22:16:00,44.1,41.9,30.07,South,174,4.0,6.0,92,0.00,,---,0.00,VWS V14.01,2013-04-09 02:16:00,
2013-04-08 22:31:00,44.0,41.8,30.08,South,175,4.0,5.0,92,0.00,,---,0.00,VWS V14.01,2013-04-09 02:31:00,
2013-04-08 22:46:00,43.8,41.3,30.08,South,182,1.0,6.0,91,0.00,,---,0.00,VWS V14.01,2013-04-09 02:46:00,
2013-04-08 23:01:00,43.9,41.5,30.08,South,182,3.0,3.0,91,0.00,,---,0.00,VWS V14.01,2013-04-09 03:01:00,
2013-04-08 23:16:00,44.1,41.7,30.08,South,173,5.0,6.0,91,0.00,,---,0.00,VWS V14.01,2013-04-09 03:16:00,
2013-04-08 23:31:00,44.2,41.7,30.07,SSE,166,5.0,7.0,91,0.00,,---,0.00,VWS V14.01,2013-04-09 03:31:00,
2013-04-08 23:46:00,44.2,41.7,30.07,SSE,162,7.0,8.0,91,0.00,,---,0.00,VWS V14.01,2013-04-09 03:46:00,